Time;durP1;ratioP1;P1;durP2;ratioP2;P2;SDS_P1;SDS_P2;PMS_P1;PMS_P2;Temp;Humidity;BMP_temperature;BMP_pressure;BME280_temperature;BME280_humidity;BME280_pressure;Samples;Min_cycle;Max_cycle;Signal;HPM_P1;HPM_P2
2021/04/18 00:00:42;;;;;;;0.20;0.20;;;;;;;3.71;35.11;98143.72;5093457;28;20036;-58
2021/04/18 00:03:08;;;;;;;0.10;0.10;;;;;;;3.70;35.16;98142.88;5092982;28;20028;-58
2021/04/18 00:05:34;;;;;;;0.90;0.90;;;;;;;3.69;35.06;98146.63;5093085;28;20547;-57
2021/04/18 00:08:02;;;;;;;0.90;0.90;;;;;;;3.67;35.14;98146.84;5092974;28;20040;-58
2021/04/18 00:10:35;;;;;;;0.20;0.20;;;;;;;3.73;35.27;98149.78;5093154;28;20467;-57
2021/04/18 00:13:04;;;;;;;9.20;0.93;;;;;;;3.79;35.00;98152.50;5092841;28;20043;-57
2021/04/18 00:15:29;;;;;;;0.45;0.45;;;;;;;3.87;34.91;98140.59;5092778;28;20032;-57
2021/04/18 00:17:55;;;;;;;0.40;0.40;;;;;;;3.95;34.71;98134.97;5093004;28;20135;-57
2021/04/18 00:20:22;;;;;;;4.10;1.15;;;;;;;4.03;34.70;98134.75;5092994;28;20040;-58
2021/04/18 00:22:48;;;;;;;0.65;0.65;;;;;;;4.08;34.74;98128.69;5075100;28;20020;-58
2021/04/18 00:25:16;;;;;;;0.40;0.40;;;;;;;4.12;34.80;98129.97;5092654;28;20032;-58
2021/04/18 00:27:44;;;;;;;1.45;1.35;;;;;;;4.16;34.85;98133.06;5093135;28;20024;-59
2021/04/18 00:30:16;;;;;;;0.43;0.43;;;;;;;4.19;34.63;98122.59;5092413;28;20063;-59
2021/04/18 00:32:42;;;;;;;0.63;0.63;;;;;;;4.24;34.73;98129.28;5076104;28;20032;-58
2021/04/18 00:35:11;;;;;;;0.65;0.65;;;;;;;4.25;34.60;98120.94;5072191;28;20039;-58
2021/04/18 00:37:40;;;;;;;0.65;0.65;;;;;;;4.25;34.88;98110.06;5072118;28;20410;-58
2021/04/18 00:40:12;;;;;;;1.20;1.20;;;;;;;4.27;34.78;98116.13;5054639;28;20052;-57
2021/04/18 00:42:38;;;;;;;0.73;0.73;;;;;;;4.25;34.79;98112.78;5072297;28;20032;-57
2021/04/18 00:45:06;;;;;;;0.20;0.20;;;;;;;4.25;34.83;98114.69;5072189;28;20040;-58
2021/04/18 00:47:33;;;;;;;0.10;0.10;;;;;;;4.21;34.96;98119.69;5072620;28;20033;-58
2021/04/18 00:50:03;;;;;;;0.20;0.20;;;;;;;4.19;35.07;98117.16;5072491;28;20154;-57
2021/04/18 00:52:29;;;;;;;0.40;0.40;;;;;;;4.19;35.10;98125.31;5055648;28;20040;-57
2021/04/18 00:54:55;;;;;;;0.20;0.20;;;;;;;4.19;35.14;98121.78;5076142;28;20029;-58
2021/04/18 00:57:21;;;;;;;0.65;0.65;;;;;;;4.23;35.26;98133.91;5076906;28;20036;-57
2021/04/18 00:59:49;;;;;;;0.20;0.20;;;;;;;4.29;34.81;98126.78;5076136;28;20029;-58
2021/04/18 01:02:15;;;;;;;0.20;0.20;;;;;;;4.37;34.80;98130.13;5076156;28;20037;-58
2021/04/18 01:04:41;;;;;;;0.75;0.75;;;;;;;4.49;34.76;98133.03;5091411;28;20118;-58
2021/04/18 01:07:06;;;;;;;0.45;0.45;;;;;;;4.65;34.34;98125.44;5057927;28;20130;-58
2021/04/18 01:09:33;;;;;;;0.75;0.75;;;;;;;4.75;34.41;98114.97;5076221;28;20028;-58
2021/04/18 01:11:59;;;;;;;0.20;0.20;;;;;;;4.84;34.42;98112.84;5076093;28;20066;-59
2021/04/18 01:14:25;;;;;;;0.20;0.20;;;;;;;4.92;34.18;98120.78;5076030;28;20044;-59
2021/04/18 01:16:51;;;;;;;0.93;0.93;;;;;;;4.99;34.41;98124.31;5075886;28;20055;-58
2021/04/18 01:19:17;;;;;;;0.50;0.50;;;;;;;5.06;34.32;98132.41;5057917;28;20060;-58
2021/04/18 01:21:43;;;;;;;0.10;0.10;;;;;;;5.11;34.11;98135.34;5057823;28;20048;-58
2021/04/18 01:24:09;;;;;;;0.32;0.32;;;;;;;5.13;34.19;98133.22;5075908;28;20108;-58
2021/04/18 01:26:35;;;;;;;0.57;0.57;;;;;;;5.17;34.20;98139.91;5075713;28;20043;-59
2021/04/18 01:29:02;;;;;;;3.30;1.55;;;;;;;5.22;34.14;98147.44;5075686;28;20039;-57
2021/04/18 01:31:28;;;;;;;0.65;0.65;;;;;;;5.24;34.37;98151.63;5075721;28;20036;-57
2021/04/18 01:33:55;;;;;;;0.25;0.25;;;;;;;5.30;34.22;98138.16;5075944;28;20160;-57
2021/04/18 01:36:21;;;;;;;0.20;0.20;;;;;;;5.29;34.18;98141.97;5075538;28;20115;-54
2021/04/18 01:38:47;;;;;;;0.20;0.20;;;;;;;5.31;34.20;98145.28;5075365;28;20048;-57
2021/04/18 01:41:13;;;;;;;0.30;0.30;;;;;;;5.30;34.32;98151.78;5075265;28;20028;-57
2021/04/18 01:43:40;;;;;;;0.25;0.25;;;;;;;5.28;34.25;98145.72;5075718;28;20082;-57
2021/04/18 01:46:06;;;;;;;0.20;0.20;;;;;;;5.29;34.40;98155.56;5075419;28;20063;-58
2021/04/18 01:48:32;;;;;;;0.20;0.20;;;;;;;5.28;34.45;98162.06;5075288;28;20028;-58
2021/04/18 01:51:04;;;;;;;0.20;0.20;;;;;;;5.27;34.60;98163.97;5075083;28;20081;-58
2021/04/18 01:53:30;;;;;;;0.17;0.17;;;;;;;5.24;34.53;98165.22;5057127;28;20123;-58
2021/04/18 01:55:56;;;;;;;0.20;0.20;;;;;;;5.25;34.33;98169.59;5075511;28;20063;-58
2021/04/18 01:58:22;;;;;;;0.20;0.20;;;;;;;5.26;34.50;98182.16;5074968;28;20123;-57
2021/04/18 02:00:47;;;;;;;0.10;0.10;;;;;;;5.26;34.47;98187.59;5074967;28;20025;-58
2021/04/18 02:03:13;;;;;;;0.13;0.13;;;;;;;5.29;34.53;98191.78;5075160;28;20118;-57
2021/04/18 02:05:39;;;;;;;0.10;0.10;;;;;;;5.29;34.26;98191.78;5075227;28;20486;-59
2021/04/18 02:08:05;;;;;;;0.10;0.10;;;;;;;5.30;34.52;98206.22;5074982;28;20067;-59
2021/04/18 02:10:31;;;;;;;0.20;0.20;;;;;;;5.29;34.52;98215.47;5057531;28;20438;-59
2021/04/18 02:12:57;;;;;;;0.20;0.20;;;;;;;5.27;34.71;98221.13;5075254;28;20170;-59
2021/04/18 02:15:22;;;;;;;0.20;0.20;;;;;;;5.27;34.74;98259.22;5074672;28;20406;-60
2021/04/18 02:17:48;;;;;;;0.10;0.10;;;;;;;5.13;34.99;98254.88;5074792;28;20524;-59
2021/04/18 02:20:16;;;;;;;0.20;0.20;;;;;;;4.93;35.37;98263.06;5074604;28;20025;-59
2021/04/18 02:22:44;;;;;;;0.20;0.20;;;;;;;4.80;35.61;98264.78;5074689;28;20428;-61
2021/04/18 02:25:11;;;;;;;0.20;0.20;;;;;;;4.68;35.68;98309.94;5074754;28;20059;-58
2021/04/18 02:27:37;;;;;;;0.25;0.25;;;;;;;4.45;36.39;98297.59;5074371;28;20032;-59
2021/04/18 02:30:04;;;;;;;0.20;0.20;;;;;;;4.27;36.51;98297.38;5074664;28;20387;-59
2021/04/18 02:32:30;;;;;;;0.20;0.20;;;;;;;4.12;36.94;98298.41;5091392;28;20081;-56
2021/04/18 02:34:56;;;;;;;0.10;0.10;;;;;;;4.02;36.88;98323.25;5094904;28;20036;-58
2021/04/18 02:37:22;;;;;;;0.20;0.20;;;;;;;3.92;37.16;98319.25;5100883;28;20047;-58
2021/04/18 02:39:47;;;;;;;0.20;0.20;;;;;;;3.84;37.38;98318.41;5115230;28;20027;-57
2021/04/18 02:42:14;;;;;;;0.20;0.20;;;;;;;3.79;37.10;98334.44;5096565;28;20034;-58
2021/04/18 02:44:40;;;;;;;0.20;0.20;;;;;;;3.73;37.42;98351.56;5114599;28;20039;-58
2021/04/18 02:47:06;;;;;;;0.20;0.20;;;;;;;3.64;37.51;98342.75;5096495;28;20489;-58
2021/04/18 02:49:32;;;;;;;0.20;0.20;;;;;;;3.60;37.46;98359.63;5114978;28;20088;-57
2021/04/18 02:51:58;;;;;;;0.20;0.20;;;;;;;3.54;37.76;98393.03;5115260;28;20027;-59
2021/04/18 02:54:24;;;;;;;0.20;0.20;;;;;;;3.35;38.41;98389.16;5114697;28;20092;-58
2021/04/18 02:56:50;;;;;;;0.20;0.20;;;;;;;3.08;38.74;98408.78;5114511;28;20107;-58
2021/04/18 02:59:19;;;;;;;0.20;0.20;;;;;;;2.75;39.55;98433.75;5114692;28;20123;-58
2021/04/18 03:01:45;;;;;;;0.20;0.20;;;;;;;2.45;40.20;98420.28;5099553;28;20085;-59
2021/04/18 03:04:11;;;;;;;0.20;0.20;;;;;;;2.25;40.21;98427.34;5093993;28;20107;-58
2021/04/18 03:06:36;;;;;;;0.90;0.77;;;;;;;2.13;40.27;98420.75;5094406;28;20115;-59
2021/04/18 03:09:04;;;;;;;0.20;0.20;;;;;;;2.06;40.25;98424.25;5094479;28;20032;-59
2021/04/18 03:11:29;;;;;;;0.20;0.20;;;;;;;2.06;39.98;98437.78;5093764;28;20077;-59
2021/04/18 03:13:55;;;;;;;0.20;0.20;;;;;;;2.04;39.70;98428.97;5093977;28;20493;-59
2021/04/18 03:16:21;;;;;;;0.20;0.20;;;;;;;2.05;39.86;98451.50;5093458;28;20080;-58
2021/04/18 03:18:47;;;;;;;0.20;0.20;;;;;;;2.02;39.73;98441.06;5094023;28;20024;-58
2021/04/18 03:21:13;;;;;;;0.20;0.20;;;;;;;2.07;39.57;98439.44;5093693;28;20047;-59
2021/04/18 03:23:38;;;;;;;0.20;0.20;;;;;;;2.15;39.44;98452.06;5093668;28;20040;-59
2021/04/18 03:26:04;;;;;;;0.20;0.20;;;;;;;2.21;39.22;98464.84;5093727;28;20068;-59
2021/04/18 03:28:30;;;;;;;0.20;0.20;;;;;;;2.23;39.12;98460.06;5058947;28;20520;-59
2021/04/18 03:30:56;;;;;;;0.20;0.20;;;;;;;2.36;38.84;98469.38;5075445;28;20040;-59
2021/04/18 03:33:23;;;;;;;0.20;0.20;;;;;;;2.38;38.99;98468.16;5093511;28;20031;-60
2021/04/18 03:35:48;;;;;;;0.20;0.20;;;;;;;2.31;39.26;98472.66;5093566;28;20043;-59
2021/04/18 03:38:14;;;;;;;0.20;0.20;;;;;;;2.30;39.41;98472.84;5080205;28;20414;-58
2021/04/18 03:40:41;;;;;;;0.20;0.20;;;;;;;2.27;39.80;98472.19;5073289;28;20447;-59
2021/04/18 03:43:07;;;;;;;0.20;0.20;;;;;;;2.36;39.34;98481.06;5078827;28;20032;-60
2021/04/18 03:45:33;;;;;;;0.20;0.20;;;;;;;2.52;39.21;98493.53;5093304;28;20089;-58
2021/04/18 03:47:59;;;;;;;0.20;0.20;;;;;;;2.56;39.19;98496.69;5093165;28;20089;-59
2021/04/18 03:50:24;;;;;;;0.20;0.20;;;;;;;2.61;39.23;98499.69;5093642;28;20427;-57
2021/04/18 03:52:55;;;;;;;0.20;0.20;;;;;;;2.73;39.01;98519.00;5093071;28;20073;-56
2021/04/18 03:55:21;;;;;;;2.83;1.00;;;;;;;2.92;38.72;98533.81;5093075;28;20400;-59
2021/04/18 03:57:47;;;;;;;0.20;0.20;;;;;;;3.04;38.79;98547.72;5093100;28;20478;-59
2021/04/18 04:00:13;;;;;;;0.20;0.20;;;;;;;2.98;39.09;98535.75;5093146;28;20028;-59
2021/04/18 04:02:39;;;;;;;0.50;0.50;;;;;;;2.93;39.23;98546.31;5092979;28;20024;-59
2021/04/18 04:05:05;;;;;;;0.20;0.20;;;;;;;3.00;39.01;98544.53;5092891;28;20521;-59
2021/04/18 04:07:31;;;;;;;0.20;0.20;;;;;;;3.25;38.58;98546.88;5093324;28;20032;-61
2021/04/18 04:09:57;;;;;;;0.20;0.20;;;;;;;3.76;38.09;98565.69;5093040;28;20028;-60
2021/04/18 04:12:24;;;;;;;0.20;0.20;;;;;;;4.22;37.23;98561.59;5092903;28;20027;-54
2021/04/18 04:14:52;;;;;;;0.20;0.20;;;;;;;4.53;36.87;98574.75;5092749;28;20031;-55
2021/04/18 04:17:18;;;;;;;0.20;0.20;;;;;;;4.41;37.12;98603.53;5074349;28;20036;-59
2021/04/18 04:19:44;;;;;;;0.20;0.20;;;;;;;4.29;37.39;98629.59;5092790;28;20378;-60
2021/04/18 04:22:09;;;;;;;0.20;0.20;;;;;;;4.46;37.03;98595.63;5092647;28;20070;-58
2021/04/18 04:24:35;;;;;;;0.20;0.20;;;;;;;4.50;36.93;98634.13;5080962;28;20052;-58
2021/04/18 04:27:01;;;;;;;0.20;0.20;;;;;;;4.49;36.87;98616.97;5082403;28;20024;-58
2021/04/18 04:29:28;;;;;;;0.20;0.20;;;;;;;4.33;36.93;98652.63;5067355;28;20420;-58
2021/04/18 04:31:54;;;;;;;0.20;0.20;;;;;;;4.06;37.55;98649.69;5085854;28;20028;-60
2021/04/18 04:34:20;;;;;;;0.20;0.20;;;;;;;4.12;37.24;98654.38;5067115;28;20516;-60
2021/04/18 04:36:46;;;;;;;0.20;0.20;;;;;;;3.81;37.88;98668.28;5084821;28;20140;-62
2021/04/18 04:39:12;;;;;;;0.65;0.40;;;;;;;3.43;38.27;98663.09;5100425;28;20518;-59
2021/04/18 04:41:37;;;;;;;0.20;0.20;;;;;;;3.14;38.61;98663.00;5105726;28;20110;-59
2021/04/18 04:44:05;;;;;;;0.20;0.20;;;;;;;2.92;38.84;98694.66;5103702;28;20032;-59
2021/04/18 04:46:30;;;;;;;0.20;0.20;;;;;;;2.87;38.72;98688.97;5110333;28;20027;-59
2021/04/18 04:48:57;;;;;;;0.20;0.20;;;;;;;2.84;38.67;98707.47;5106661;28;20366;-57
2021/04/18 04:51:22;;;;;;;0.20;0.20;;;;;;;2.68;38.91;98709.34;5107411;28;20361;-60
2021/04/18 04:53:48;;;;;;;0.20;0.20;;;;;;;2.49;39.04;98737.84;5086533;28;20034;-63
2021/04/18 04:56:14;;;;;;;0.20;0.20;;;;;;;2.26;39.16;98737.88;5109631;28;20039;-62
2021/04/18 04:58:40;;;;;;;0.20;0.20;;;;;;;2.09;39.39;98726.34;5110673;28;20049;-59
2021/04/18 05:01:05;;;;;;;0.20;0.20;;;;;;;2.00;39.48;98736.41;5107203;28;20032;-62
2021/04/18 05:03:31;;;;;;;0.20;0.20;;;;;;;1.96;39.27;98735.09;5110508;28;20028;-60
2021/04/18 05:05:57;;;;;;;0.20;0.20;;;;;;;1.99;39.06;98733.88;5075875;28;20024;-63
2021/04/18 05:08:23;;;;;;;0.20;0.20;;;;;;;2.11;38.70;98745.97;5092800;28;20045;-62
2021/04/18 05:10:49;;;;;;;0.20;0.20;;;;;;;2.18;38.51;98759.63;5110911;28;20370;-59
2021/04/18 05:13:15;;;;;;;0.20;0.20;;;;;;;2.24;38.38;98776.00;5110868;28;20032;-61
2021/04/18 05:15:41;;;;;;;0.20;0.20;;;;;;;2.24;38.30;98767.03;5105704;28;20128;-57
2021/04/18 05:18:07;;;;;;;0.20;0.20;;;;;;;2.21;38.31;98765.53;5110832;28;20497;-59
2021/04/18 05:20:32;;;;;;;0.20;0.20;;;;;;;2.19;38.36;98762.16;5110449;28;20058;-61
2021/04/18 05:22:59;;;;;;;0.20;0.20;;;;;;;2.35;38.03;98771.19;5106947;28;20492;-61
2021/04/18 05:25:24;;;;;;;0.20;0.20;;;;;;;2.49;37.85;98788.47;5089505;28;20053;-59
2021/04/18 05:27:50;;;;;;;0.20;0.20;;;;;;;2.53;37.75;98784.38;5110647;28;20028;-60
2021/04/18 05:30:17;;;;;;;0.20;0.20;;;;;;;2.68;37.62;98793.41;5105314;28;20034;-64
2021/04/18 05:32:43;;;;;;;0.20;0.20;;;;;;;2.62;37.82;98796.81;5108929;28;20040;-63
2021/04/18 05:35:09;;;;;;;0.20;0.20;;;;;;;2.49;37.94;98808.31;5108292;28;20493;-63
2021/04/18 05:37:35;;;;;;;0.20;0.20;;;;;;;2.37;38.28;98826.88;5107600;28;20044;-60
2021/04/18 05:40:02;;;;;;;0.20;0.20;;;;;;;2.30;38.32;98823.22;5102584;28;20383;-63
2021/04/18 05:42:28;;;;;;;0.20;0.20;;;;;;;2.17;38.47;98818.38;5097511;28;20045;-56
2021/04/18 05:44:54;;;;;;;0.20;0.20;;;;;;;2.20;38.28;98822.59;5096012;28;20432;-62
2021/04/18 05:47:20;;;;;;;0.20;0.20;;;;;;;2.22;38.33;98855.75;5095393;28;20028;-61
2021/04/18 05:49:45;;;;;;;0.20;0.20;;;;;;;2.18;38.50;98854.44;5095349;28;20028;-60
2021/04/18 05:52:13;;;;;;;0.20;0.20;;;;;;;2.12;38.42;98860.56;5095186;28;20028;-60
2021/04/18 05:54:38;;;;;;;0.20;0.20;;;;;;;2.08;38.61;98893.44;5095497;28;20032;-59
2021/04/18 05:57:05;;;;;;;0.20;0.20;;;;;;;2.00;38.69;98873.69;5095181;28;20039;-62
2021/04/18 05:59:30;;;;;;;0.20;0.20;;;;;;;1.96;38.60;98881.34;5095743;28;20165;-63
2021/04/18 06:01:56;;;;;;;0.20;0.20;;;;;;;1.93;38.57;98892.53;5095268;28;20111;-61
2021/04/18 06:04:22;;;;;;;0.20;0.20;;;;;;;1.96;38.63;98881.34;5094652;28;20131;-61
2021/04/18 06:06:48;;;;;;;0.20;0.20;;;;;;;2.07;38.29;98899.88;5095098;28;20032;-59
2021/04/18 06:09:13;;;;;;;0.30;0.30;;;;;;;2.19;38.24;98907.59;5094929;28;20070;-63
2021/04/18 06:11:39;;;;;;;0.20;0.20;;;;;;;2.17;38.21;98905.06;5095158;28;20077;-62
2021/04/18 06:14:05;;;;;;;0.20;0.20;;;;;;;2.24;38.10;98916.06;5090349;28;20036;-59
2021/04/18 06:16:31;;;;;;;0.20;0.20;;;;;;;2.20;38.14;98923.69;5075963;28;20058;-59
2021/04/18 06:18:56;;;;;;;0.20;0.20;;;;;;;2.16;38.25;98914.22;5094512;28;20038;-61
2021/04/18 06:21:22;;;;;;;0.20;0.20;;;;;;;2.15;38.10;98925.22;5095080;28;20482;-62
2021/04/18 06:23:48;;;;;;;0.20;0.20;;;;;;;2.21;37.96;98938.06;5082950;28;20364;-59
2021/04/18 06:26:14;;;;;;;0.20;0.20;;;;;;;2.25;37.98;98952.94;5074315;28;20037;-60
2021/04/18 06:28:39;;;;;;;0.20;0.20;;;;;;;2.22;37.86;98946.03;5074281;28;20036;-62
2021/04/18 06:31:05;;;;;;;0.20;0.20;;;;;;;2.23;37.81;98968.53;5073866;28;20059;-62
2021/04/18 06:33:31;;;;;;;0.20;0.20;;;;;;;2.17;37.98;98971.97;5078235;28;20024;-62
2021/04/18 06:35:57;;;;;;;0.20;0.20;;;;;;;2.12;38.02;98985.19;5095010;28;20524;-62
2021/04/18 06:38:23;;;;;;;0.30;0.30;;;;;;;2.04;38.22;98969.81;5094180;28;20128;-62
2021/04/18 06:40:51;;;;;;;0.20;0.20;;;;;;;1.97;38.35;98999.44;5094381;28;20067;-61
2021/04/18 06:43:21;;;;;;;0.20;0.20;;;;;;;1.93;38.23;98973.75;5094424;28;20023;-61
2021/04/18 06:45:52;;;;;;;0.20;0.20;;;;;;;1.91;38.18;98997.44;5093855;28;20066;-60
2021/04/18 06:48:19;;;;;;;0.20;0.20;;;;;;;1.93;38.17;98987.31;5094017;28;20093;-63
2021/04/18 06:50:49;;;;;;;0.20;0.20;;;;;;;2.04;37.80;98996.91;5075582;28;20111;-61
2021/04/18 06:53:16;;;;;;;0.20;0.20;;;;;;;2.17;37.43;98997.19;5092862;28;20132;-61
2021/04/18 06:55:42;;;;;;;0.20;0.20;;;;;;;2.21;37.58;99014.78;5070104;28;20099;-61
2021/04/18 06:58:08;;;;;;;0.38;0.38;;;;;;;2.17;37.60;99012.59;5090883;28;20040;-64
2021/04/18 07:00:34;;;;;;;0.20;0.20;;;;;;;2.14;37.74;99023.78;5093522;28;20031;-63
2021/04/18 07:03:14;;;;;;;0.20;0.20;;;;;;;2.23;37.45;99020.03;5093360;28;20417;-60
2021/04/18 07:05:43;;;;;;;0.20;0.20;;;;;;;2.36;37.21;99031.13;5082226;28;20044;-61
2021/04/18 07:08:27;;;;;;;0.20;0.20;;;;;;;2.51;37.15;99030.38;5094257;28;20517;-62
2021/04/18 07:11:14;;;;;;;0.20;0.20;;;;;;;2.63;36.79;99034.38;5094134;28;20123;-61
2021/04/18 07:13:42;;;;;;;0.20;0.20;;;;;;;2.84;36.52;99039.16;5075631;28;20067;-64
2021/04/18 07:16:28;;;;;;;0.20;0.20;;;;;;;3.17;36.03;99046.25;5078489;28;20451;-63
2021/04/18 07:18:55;;;;;;;0.22;0.22;;;;;;;3.42;35.88;99034.16;5080153;28;20032;-63
2021/04/18 07:21:22;;;;;;;0.20;0.20;;;;;;;3.37;35.94;99052.84;5093685;28;20036;-60
2021/04/18 07:23:49;;;;;;;1.13;1.10;;;;;;;3.22;36.15;99062.81;5093311;28;20024;-61
2021/04/18 07:26:21;;;;;;;0.20;0.20;;;;;;;3.21;36.25;99074.69;5093402;28;20066;-59
2021/04/18 07:28:47;;;;;;;0.25;0.25;;;;;;;3.24;36.16;99068.91;5093527;28;20032;-61
2021/04/18 07:31:27;;;;;;;0.20;0.20;;;;;;;3.28;36.05;99078.38;5093560;28;20074;-62
2021/04/18 07:34:00;;;;;;;0.20;0.20;;;;;;;3.26;36.28;99075.00;5093509;28;20028;-61
2021/04/18 07:36:26;;;;;;;0.20;0.20;;;;;;;3.18;36.25;99075.06;5093347;28;20038;-60
2021/04/18 07:38:52;;;;;;;0.20;0.20;;;;;;;3.08;36.42;99078.84;5130207;27;20051;-60
2021/04/18 07:41:20;;;;;;;0.20;0.20;;;;;;;3.12;36.44;99082.91;5122196;27;20031;-62
2021/04/18 07:43:47;;;;;;;0.20;0.20;;;;;;;3.24;36.07;99077.91;5113476;28;20031;-61
2021/04/18 07:46:15;;;;;;;0.20;0.20;;;;;;;3.44;35.85;99096.41;5113016;28;20110;-62
2021/04/18 07:48:42;;;;;;;0.20;0.20;;;;;;;3.45;35.75;99077.22;5091604;27;20122;-61
2021/04/18 07:51:08;;;;;;;0.20;0.20;;;;;;;3.33;36.13;99089.53;5113557;28;20024;-61
2021/04/18 07:53:35;;;;;;;0.20;0.20;;;;;;;3.23;36.16;99110.66;5113958;28;20035;-63
2021/04/18 07:56:01;;;;;;;0.20;0.20;;;;;;;3.09;36.37;99123.97;5113773;28;20110;-59
2021/04/18 07:58:28;;;;;;;0.20;0.20;;;;;;;2.95;36.75;99136.41;5102869;28;20092;-61
2021/04/18 08:00:55;;;;;;;0.20;0.20;;;;;;;2.84;36.84;99116.97;5092846;28;20028;-61
2021/04/18 08:03:22;;;;;;;0.20;0.20;;;;;;;2.94;36.86;99117.59;5113127;27;20511;-61
2021/04/18 08:05:48;;;;;;;0.20;0.20;;;;;;;3.05;36.44;99147.03;5115448;27;20027;-60
2021/04/18 08:08:15;;;;;;;0.20;0.20;;;;;;;3.10;36.46;99136.47;5126992;27;20039;-61
2021/04/18 08:10:43;;;;;;;0.20;0.20;;;;;;;3.07;36.37;99153.13;5113545;28;20038;-61
2021/04/18 08:13:23;;;;;;;0.20;0.20;;;;;;;3.08;36.49;99133.13;5113648;28;20050;-63
2021/04/18 08:15:55;;;;;;;0.10;0.10;;;;;;;3.18;36.13;99134.75;5113824;28;20027;-64
2021/04/18 08:18:30;;;;;;;0.20;0.20;;;;;;;3.22;36.24;99136.91;5115023;27;20035;-63
2021/04/18 08:20:57;;;;;;;0.20;0.20;;;;;;;3.25;35.90;99136.56;5133621;27;20396;-62
2021/04/18 08:23:23;;;;;;;0.20;0.20;;;;;;;3.37;35.80;99161.41;5133772;27;20092;-64
2021/04/18 08:26:04;;;;;;;0.30;0.30;;;;;;;3.61;35.72;99154.16;5083280;28;20093;-61
2021/04/18 08:28:31;;;;;;;0.20;0.20;;;;;;;3.68;35.34;99157.81;5093132;28;20573;-63
2021/04/18 08:31:02;;;;;;;0.20;0.20;;;;;;;3.62;35.45;99170.25;5092523;28;20111;-64
2021/04/18 08:33:39;;;;;;;0.20;0.20;;;;;;;3.72;35.35;99156.41;5099018;27;20023;-62
2021/04/18 08:36:17;;;;;;;0.20;0.20;;;;;;;3.85;35.11;99159.34;5133938;27;20038;-63
2021/04/18 08:38:48;;;;;;;0.20;0.20;;;;;;;3.82;35.14;99176.03;5114670;28;20104;-61
2021/04/18 08:41:15;;;;;;;0.20;0.20;;;;;;;3.76;35.27;99184.91;5113871;28;20035;-62
2021/04/18 08:43:45;;;;;;;0.20;0.20;;;;;;;3.83;35.23;99175.00;5114731;28;20039;-61
2021/04/18 08:46:12;;;;;;;0.20;0.20;;;;;;;3.95;35.00;99196.31;5133248;28;20107;-63
2021/04/18 08:48:37;;;;;;;0.20;0.20;;;;;;;3.95;35.18;99185.44;5133359;28;20378;-62
2021/04/18 08:51:06;;;;;;;0.20;0.20;;;;;;;3.88;35.26;99201.63;5133235;28;20042;-61
2021/04/18 08:53:52;;;;;;;0.20;0.20;;;;;;;3.82;35.42;99205.91;5133509;28;20027;-60
2021/04/18 08:56:18;;;;;;;0.20;0.20;;;;;;;3.63;35.95;99279.72;5132942;28;20045;-64
2021/04/18 08:58:44;;;;;;;0.20;0.20;;;;;;;3.27;36.47;99234.09;5133811;28;20035;-62
2021/04/18 09:01:12;;;;;;;0.20;0.20;;;;;;;3.15;36.72;99245.34;5133721;28;20033;-62
2021/04/18 09:03:40;;;;;;;0.20;0.20;;;;;;;2.98;36.97;99228.28;5133109;28;20034;-63
2021/04/18 09:06:21;;;;;;;0.20;0.20;;;;;;;2.70;37.24;99267.72;5114652;28;20407;-65
2021/04/18 09:08:51;;;;;;;0.20;0.20;;;;;;;2.56;37.36;99231.28;5133515;28;20414;-63
2021/04/18 09:11:18;;;;;;;0.20;0.20;;;;;;;2.61;37.13;99232.47;5133339;28;20035;-63
2021/04/18 09:13:55;;;;;;;0.20;0.20;;;;;;;2.85;36.70;99225.28;5134433;27;20049;-62
2021/04/18 09:16:22;;;;;;;0.20;0.20;;;;;;;3.27;36.05;99212.41;5137024;27;20117;-63
2021/04/18 09:18:48;;;;;;;0.40;0.40;;;;;;;3.78;35.09;99231.72;5136997;27;20077;-62
2021/04/18 09:21:15;;;;;;;0.20;0.20;;;;;;;3.85;35.09;99251.72;5118792;27;20047;-60
2021/04/18 09:24:01;;;;;;;0.20;0.20;;;;;;;3.80;35.23;99254.16;5136747;27;20053;-62
2021/04/18 09:26:27;;;;;;;0.20;0.20;;;;;;;3.76;35.37;99262.84;5117525;27;20574;-62
2021/04/18 09:29:10;;;;;;;0.17;0.17;;;;;;;3.77;35.38;99265.38;5116137;28;20127;-62
2021/04/18 09:31:52;;;;;;;0.20;0.20;;;;;;;3.59;35.61;99265.66;5116499;28;20050;-62
2021/04/18 09:34:20;;;;;;;0.20;0.20;;;;;;;3.47;35.92;99280.66;5116331;28;20034;-61
2021/04/18 09:36:47;;;;;;;0.20;0.20;;;;;;;3.09;36.29;99284.03;5115659;28;20054;-59
2021/04/18 09:39:13;;;;;;;0.20;0.20;;;;;;;2.65;36.79;99279.06;5095261;28;20039;-61
2021/04/18 09:41:41;;;;;;;0.20;0.20;;;;;;;2.43;36.95;99284.19;5081014;28;20393;-60
2021/04/18 09:44:08;;;;;;;0.20;0.20;;;;;;;2.42;36.85;99282.47;5057150;28;20029;-60
2021/04/18 09:46:43;;;;;;;0.10;0.10;;;;;;;2.59;36.56;99298.72;5075819;28;20482;-60
2021/04/18 09:49:09;;;;;;;0.20;0.20;;;;;;;2.90;35.83;99279.00;5074982;28;20059;-60
2021/04/18 09:51:52;;;;;;;0.20;0.20;;;;;;;3.39;35.13;99278.81;5075028;28;20024;-59
2021/04/18 09:54:35;;;;;;;0.20;0.20;;;;;;;3.70;34.76;99280.69;5075141;28;20123;-61
2021/04/18 09:57:21;;;;;;;0.20;0.20;;;;;;;3.57;34.94;99315.72;5056758;28;20545;-61
2021/04/18 10:00:01;;;;;;;0.20;0.20;;;;;;;2.95;35.66;99293.72;5075540;28;20162;-60
2021/04/18 10:02:27;;;;;;;0.20;0.20;;;;;;;2.61;36.23;99323.81;5075428;28;20020;-60
2021/04/18 10:05:13;;;;;;;0.20;0.20;;;;;;;2.52;36.23;99311.25;5074630;28;20044;-61
2021/04/18 10:07:39;;;;;;;0.20;0.20;;;;;;;2.57;36.04;99311.59;5057471;28;20063;-62
2021/04/18 10:10:06;;;;;;;0.20;0.20;;;;;;;2.66;35.85;99328.72;5074720;28;20032;-62
2021/04/18 10:12:52;;;;;;;0.20;0.20;;;;;;;2.79;35.32;99329.88;5075204;28;20167;-61
2021/04/18 10:15:19;;;;;;;0.20;0.20;;;;;;;2.93;35.14;99294.91;5074423;28;20041;-62
2021/04/18 10:17:45;;;;;;;0.20;0.20;;;;;;;3.24;34.52;99300.44;5056588;28;20086;-60
2021/04/18 10:20:21;;;;;;;0.30;0.30;;;;;;;3.55;34.11;99294.19;5056572;28;20029;-61
2021/04/18 10:23:07;;;;;;;0.90;0.50;;;;;;;3.88;33.75;99304.03;5075115;28;20081;-60
2021/04/18 10:25:35;;;;;;;0.20;0.20;;;;;;;4.03;33.54;99297.63;5073741;28;20406;-61
2021/04/18 10:28:00;;;;;;;0.20;0.20;;;;;;;3.96;33.96;99366.44;5074893;28;20073;-60
2021/04/18 10:30:27;;;;;;;0.20;0.20;;;;;;;3.52;34.08;99340.72;5078012;28;20040;-61
2021/04/18 10:32:54;;;;;;;0.20;0.20;;;;;;;2.94;35.26;99340.03;5089829;28;20512;-61
2021/04/18 10:35:19;;;;;;;0.20;0.20;;;;;;;2.55;35.74;99340.75;5094519;28;20040;-59
2021/04/18 10:37:46;;;;;;;0.20;0.20;;;;;;;2.40;35.85;99370.38;5103570;28;20053;-62
2021/04/18 10:40:17;;;;;;;0.20;0.20;;;;;;;2.34;35.83;99343.97;5095264;28;20035;-61
2021/04/18 10:42:43;;;;;;;0.20;0.20;;;;;;;2.36;35.45;99331.09;5114715;28;20035;-60
2021/04/18 10:45:11;;;;;;;0.20;0.20;;;;;;;2.36;35.38;99358.22;5114535;28;20118;-59
2021/04/18 10:47:38;;;;;;;0.20;0.20;;;;;;;2.49;35.08;99357.69;5096377;28;20027;-55
2021/04/18 10:50:05;;;;;;;0.20;0.20;;;;;;;2.54;34.85;99333.63;5113728;28;20110;-60
2021/04/18 10:52:32;;;;;;;0.20;0.20;;;;;;;2.72;34.78;99338.88;5105151;28;20028;-60
2021/04/18 10:54:57;;;;;;;0.20;0.20;;;;;;;2.80;34.45;99334.28;5093888;28;20131;-60
2021/04/18 10:57:23;;;;;;;0.20;0.20;;;;;;;2.76;34.38;99341.06;5075975;28;20119;-60
2021/04/18 10:59:50;;;;;;;0.20;0.20;;;;;;;2.73;34.58;99349.53;5096320;28;20035;-60
2021/04/18 11:02:16;;;;;;;0.20;0.20;;;;;;;2.74;34.21;99340.41;5112959;28;20031;-60
2021/04/18 11:04:42;;;;;;;0.20;0.20;;;;;;;2.64;34.17;99356.00;5113057;28;20035;-58
2021/04/18 11:07:09;;;;;;;0.20;0.20;;;;;;;2.45;34.35;99358.03;5114248;28;20359;-61
2021/04/18 11:09:37;;;;;;;0.20;0.20;;;;;;;2.44;34.56;99367.19;5113878;28;20528;-62
2021/04/18 11:12:04;;;;;;;0.20;0.20;;;;;;;2.55;34.25;99367.88;5128285;27;20027;-61
2021/04/18 11:14:29;;;;;;;0.20;0.20;;;;;;;2.65;33.85;99360.41;5110442;28;20429;-61
2021/04/18 11:16:55;;;;;;;0.20;0.20;;;;;;;2.76;33.98;99349.19;5095316;28;20073;-59
2021/04/18 11:19:40;;;;;;;;;;;;;;;;;;;;;
2021/04/18 11:22:07;;;;;;;0.13;0.13;;;;;;;3.22;33.12;99337.75;5111858;28;20043;-61
2021/04/18 11:24:33;;;;;;;0.20;0.20;;;;;;;3.26;33.05;99370.81;5111625;28;20122;-56
2021/04/18 11:26:58;;;;;;;0.17;0.17;;;;;;;3.27;33.12;99361.66;5096533;28;20482;-57
2021/04/18 11:29:24;;;;;;;0.13;0.13;;;;;;;3.24;33.19;99364.69;5091586;28;20020;-56
2021/04/18 11:31:50;;;;;;;0.20;0.20;;;;;;;3.26;33.07;99373.53;5113387;28;20027;-63
2021/04/18 11:34:16;;;;;;;0.20;0.20;;;;;;;3.15;33.29;99367.47;5113734;28;20488;-60
2021/04/18 11:36:42;;;;;;;0.20;0.20;;;;;;;2.84;33.41;99377.34;5113392;27;20489;-61
2021/04/18 11:39:08;;;;;;;0.20;0.20;;;;;;;2.47;33.93;99370.56;5127951;27;20081;-54
2021/04/18 11:41:35;;;;;;;0.20;0.20;;;;;;;2.18;34.51;99385.44;5077606;28;20505;-62
2021/04/18 11:44:02;;;;;;;0.20;0.20;;;;;;;2.13;34.52;99383.22;5093077;28;20432;-56
2021/04/18 11:46:28;;;;;;;0.20;0.20;;;;;;;2.31;34.11;99387.66;5125005;27;20027;-62